createdAt,value
2023-01-06T00:00:34.015Z,83.77
2023-01-06T00:02:57.681Z,83.64
2023-01-06T00:05:22.825Z,83.66
2023-01-06T00:07:46.500Z,83.86
2023-01-06T00:10:11.072Z,84.19
2023-01-06T00:12:35.136Z,84.76
2023-01-06T00:14:58.687Z,84.82
2023-01-06T00:17:22.325Z,85.00
2023-01-06T00:19:45.919Z,84.58
2023-01-06T00:22:11.023Z,84.34
2023-01-06T00:24:34.559Z,83.95
2023-01-06T00:26:58.190Z,84.22
2023-01-06T00:29:21.710Z,83.00
2023-01-06T00:31:45.395Z,82.77
2023-01-06T00:34:08.992Z,84.66
2023-01-06T00:36:32.674Z,84.96
2023-01-06T00:38:57.675Z,85.38
2023-01-06T00:41:39.321Z,86.77
2023-01-06T00:44:03.801Z,86.85
2023-01-06T00:46:29.504Z,86.91
2023-01-06T00:49:04.720Z,86.43
2023-01-06T00:51:30.355Z,83.26
2023-01-06T00:53:54.234Z,84.01
2023-01-06T00:56:19.301Z,82.42
2023-01-06T00:58:42.987Z,84.55
2023-01-06T01:01:08.377Z,85.87
2023-01-06T01:03:33.195Z,84.61
2023-01-06T01:06:01.129Z,83.42
2023-01-06T01:08:24.736Z,81.74
2023-01-06T01:10:48.358Z,82.44
2023-01-06T01:13:13.554Z,82.32
2023-01-06T01:15:37.211Z,82.68
2023-01-06T01:18:00.812Z,81.43
2023-01-06T01:20:24.836Z,82.03
2023-01-06T01:22:48.348Z,83.12
2023-01-06T01:25:11.990Z,82.07
2023-01-06T01:27:35.495Z,82.44
2023-01-06T01:30:00.605Z,82.56
2023-01-06T01:32:24.222Z,81.75
2023-01-06T01:34:48.080Z,83.90
2023-01-06T01:37:11.606Z,83.65
2023-01-06T01:39:35.244Z,82.71
2023-01-06T01:42:00.188Z,84.05
2023-01-06T01:44:56.909Z,82.95
2023-01-06T01:47:27.950Z,83.60
2023-01-06T01:49:55.360Z,82.86
2023-01-06T01:52:20.069Z,82.41
2023-01-06T01:54:45.381Z,84.90
2023-01-06T01:57:14.619Z,83.26
2023-01-06T01:59:40.073Z,82.82
2023-01-06T02:02:03.860Z,84.08
2023-01-06T02:04:29.987Z,83.63
2023-01-06T02:06:54.620Z,83.72
2023-01-06T02:09:23.018Z,82.52
2023-01-06T02:11:47.555Z,81.78
2023-01-06T02:14:14.573Z,82.88
2023-01-06T02:16:51.998Z,82.86
2023-01-06T02:19:49.245Z,83.93
2023-01-06T02:22:35.454Z,82.68
2023-01-06T02:25:32.543Z,82.56
2023-01-06T02:28:41.947Z,82.76
2023-01-06T02:32:03.819Z,82.81
2023-01-06T02:34:42.010Z,81.56
2023-01-06T02:37:19.494Z,81.78
2023-01-06T02:40:00.914Z,81.98
2023-01-06T02:42:34.194Z,81.36
2023-01-06T02:45:08.776Z,80.28
2023-01-06T02:47:43.745Z,80.87
2023-01-06T02:50:21.280Z,80.59
2023-01-06T02:52:54.588Z,79.98
2023-01-06T02:55:27.621Z,81.35
2023-01-06T02:57:58.478Z,79.68
2023-01-06T03:00:32.024Z,80.15
2023-01-06T03:03:00.954Z,79.77
2023-01-06T03:05:29.079Z,79.94
2023-01-06T03:07:54.869Z,79.85
2023-01-06T03:10:21.366Z,80.10
2023-01-06T03:12:53.038Z,80.01
2023-01-06T03:15:17.187Z,80.10
2023-01-06T03:17:40.973Z,79.49
2023-01-06T03:20:05.123Z,79.91
2023-01-06T03:22:32.837Z,78.98
2023-01-06T03:24:56.593Z,79.55
2023-01-06T03:27:26.251Z,78.41
2023-01-06T03:29:50.276Z,77.78
2023-01-06T03:32:22.086Z,78.08
2023-01-06T03:35:01.093Z,78.70
2023-01-06T03:37:36.027Z,78.43
2023-01-06T03:40:10.766Z,78.33
2023-01-06T03:42:59.133Z,77.89
2023-01-06T03:45:41.795Z,78.81
2023-01-06T03:48:12.790Z,78.62
2023-01-06T03:50:41.984Z,78.51
2023-01-06T03:53:25.100Z,78.34
2023-01-06T03:55:55.373Z,78.20
2023-01-06T03:58:21.027Z,77.75
2023-01-06T04:00:45.938Z,77.90
2023-01-06T04:03:13.760Z,78.02
2023-01-06T04:05:39.496Z,77.79
2023-01-06T04:08:03.648Z,77.89
2023-01-06T04:10:29.557Z,78.48
2023-01-06T04:12:54.213Z,77.26
2023-01-06T04:15:25.122Z,77.58
2023-01-06T04:17:51.113Z,78.47
2023-01-06T04:20:18.533Z,77.99
2023-01-06T04:22:43.431Z,77.71
2023-01-06T04:25:08.444Z,78.25
2023-01-06T04:27:33.608Z,78.24
2023-01-06T04:29:57.319Z,78.00
2023-01-06T04:32:21.066Z,78.18
2023-01-06T04:34:44.622Z,78.24
2023-01-06T04:37:09.502Z,78.85
2023-01-06T04:39:33.098Z,79.16
2023-01-06T04:41:56.686Z,78.09
2023-01-06T04:44:21.999Z,78.55
2023-01-06T04:46:45.617Z,78.73
2023-01-06T04:49:09.368Z,80.55
2023-01-06T04:51:32.979Z,78.71
2023-01-06T04:53:57.474Z,78.97
2023-01-06T04:56:21.122Z,79.33
2023-01-06T04:58:44.611Z,80.12
2023-01-06T05:01:12.803Z,79.64
2023-01-06T05:03:37.081Z,80.11
2023-01-06T05:06:03.361Z,79.90
2023-01-06T05:08:26.900Z,79.95
2023-01-06T05:10:50.537Z,80.53
2023-01-06T05:13:14.151Z,80.72
2023-01-06T05:15:37.707Z,80.55
2023-01-06T05:18:02.612Z,80.79
2023-01-06T05:20:26.148Z,79.85
2023-01-06T05:22:49.686Z,80.79
2023-01-06T05:25:13.284Z,82.42
2023-01-06T05:27:36.805Z,82.68
2023-01-06T05:30:00.441Z,82.26
2023-01-06T05:32:23.982Z,81.30
2023-01-06T05:34:49.439Z,82.21
2023-01-06T05:37:12.970Z,82.39
2023-01-06T05:39:36.525Z,81.75
2023-01-06T05:42:00.092Z,82.50
2023-01-06T05:44:23.763Z,82.63
2023-01-06T05:46:47.367Z,83.43
2023-01-06T05:49:11.372Z,83.81
2023-01-06T05:51:36.334Z,83.96
2023-01-06T05:53:59.938Z,84.17
2023-01-06T05:56:24.615Z,83.12
2023-01-06T05:58:50.375Z,85.17
2023-01-06T06:01:19.594Z,85.26
2023-01-06T06:03:43.221Z,86.54
2023-01-06T06:06:08.254Z,86.58
2023-01-06T06:08:33.339Z,87.81
2023-01-06T06:10:56.853Z,85.44
2023-01-06T06:13:20.494Z,86.58
2023-01-06T06:15:43.988Z,87.22
2023-01-06T06:18:07.777Z,89.93
2023-01-06T06:20:31.532Z,90.39
2023-01-06T06:22:55.519Z,90.16
2023-01-06T06:25:20.504Z,91.07
2023-01-06T06:27:44.080Z,91.36
2023-01-06T06:30:09.501Z,90.12
2023-01-06T06:32:33.089Z,89.50
2023-01-06T06:34:56.664Z,90.03
2023-01-06T06:37:20.219Z,90.59
2023-01-06T06:39:43.717Z,92.28
2023-01-06T06:42:08.911Z,92.35
2023-01-06T06:44:32.451Z,91.31
2023-01-06T06:46:56.134Z,90.24
2023-01-06T06:49:19.663Z,92.13
2023-01-06T06:51:43.224Z,92.99
2023-01-06T06:54:07.035Z,91.96
2023-01-06T06:56:30.641Z,92.29
2023-01-06T06:58:55.525Z,91.91
2023-01-06T07:01:21.838Z,92.14
2023-01-06T07:03:46.240Z,93.96
2023-01-06T07:06:13.820Z,92.96
2023-01-06T07:08:37.909Z,94.52
2023-01-06T07:11:01.729Z,94.99
2023-01-06T07:13:25.283Z,94.86
2023-01-06T07:15:50.290Z,95.39
2023-01-06T07:18:13.878Z,94.74
2023-01-06T07:20:38.945Z,93.86
2023-01-06T07:23:02.790Z,96.12
2023-01-06T07:25:27.366Z,96.41
2023-01-06T07:27:55.983Z,95.42
2023-01-06T07:30:19.723Z,94.83
2023-01-06T07:32:44.631Z,96.39
2023-01-06T07:35:09.136Z,94.68
2023-01-06T07:37:32.847Z,97.49
2023-01-06T07:39:56.484Z,97.45
2023-01-06T07:42:19.992Z,98.73
2023-01-06T07:44:43.630Z,97.49
2023-01-06T07:47:07.720Z,96.98
2023-01-06T07:49:32.676Z,95.95
2023-01-06T07:51:56.214Z,98.24
2023-01-06T07:54:19.907Z,97.52
2023-01-06T07:56:44.107Z,99.05
2023-01-06T07:59:07.912Z,99.71
2023-01-06T08:01:31.504Z,98.72
2023-01-06T08:03:55.107Z,100.00
2023-01-06T08:06:19.995Z,98.20
2023-01-06T08:08:43.950Z,98.56
2023-01-06T08:11:08.455Z,99.79
2023-01-06T08:13:32.058Z,99.44
2023-01-06T08:15:55.620Z,100.00
2023-01-06T08:18:19.198Z,100.00
2023-01-06T08:20:42.710Z,100.00
2023-01-06T08:23:07.665Z,99.12
2023-01-06T08:25:31.225Z,100.00
2023-01-06T08:27:54.779Z,100.00
2023-01-06T08:30:22.027Z,98.29
2023-01-06T08:32:45.667Z,97.93
2023-01-06T08:35:09.936Z,98.62
2023-01-06T08:37:33.568Z,100.00
2023-01-06T08:39:58.468Z,100.00
2023-01-06T08:42:22.032Z,100.00
2023-01-06T08:44:45.984Z,100.00
2023-01-06T08:47:09.537Z,100.00
2023-01-06T08:49:33.428Z,100.00
2023-01-06T08:51:57.053Z,100.00
2023-01-06T08:54:20.620Z,99.78
2023-01-06T08:56:45.664Z,100.00
2023-01-06T08:59:09.267Z,100.00
2023-01-06T09:01:35.819Z,100.00
2023-01-06T09:04:02.247Z,100.00
2023-01-06T09:06:25.887Z,100.00
2023-01-06T09:08:49.930Z,100.00
2023-01-06T09:11:14.068Z,100.00
2023-01-06T09:13:39.602Z,100.00
2023-01-06T09:16:06.364Z,100.00
2023-01-06T09:18:29.907Z,99.67
2023-01-06T09:20:53.497Z,98.35
2023-01-06T09:23:17.037Z,100.00
2023-01-06T09:25:41.143Z,100.00
2023-01-06T09:28:04.854Z,99.06
2023-01-06T09:30:30.179Z,100.00
2023-01-06T09:32:53.722Z,99.98
2023-01-06T09:35:17.504Z,100.00
2023-01-06T09:37:41.022Z,100.00
2023-01-06T09:40:05.359Z,99.83
2023-01-06T09:42:49.814Z,99.47
2023-01-06T09:45:19.133Z,99.42
2023-01-06T09:47:49.483Z,100.00
2023-01-06T09:50:25.585Z,100.00
2023-01-06T09:52:53.435Z,100.00
2023-01-06T09:55:22.041Z,100.00
2023-01-06T09:57:51.364Z,100.00
2023-01-06T10:00:30.939Z,100.00
2023-01-06T10:02:56.550Z,99.97
2023-01-06T10:05:24.515Z,98.63
2023-01-06T10:07:57.689Z,99.53
2023-01-06T10:10:30.043Z,100.00
2023-01-06T10:13:08.309Z,99.04
2023-01-06T10:15:42.521Z,100.00
2023-01-06T10:18:27.673Z,99.75
2023-01-06T10:21:02.611Z,98.88
2023-01-06T10:24:04.508Z,98.35
2023-01-06T10:26:32.174Z,97.76
2023-01-06T10:29:03.010Z,98.04
2023-01-06T10:31:35.225Z,99.17
2023-01-06T10:34:01.003Z,97.83
2023-01-06T10:36:33.352Z,98.62
2023-01-06T10:38:57.139Z,97.56
2023-01-06T10:41:39.222Z,99.32
2023-01-06T10:44:02.892Z,100.00
2023-01-06T10:46:34.902Z,97.80
2023-01-06T10:49:00.047Z,98.01
2023-01-06T10:51:44.538Z,97.03
2023-01-06T10:54:14.003Z,96.99
2023-01-06T10:56:39.442Z,96.47
2023-01-06T10:59:09.502Z,96.32
2023-01-06T11:01:34.818Z,95.20
2023-01-06T11:04:13.059Z,95.59
2023-01-06T11:06:38.821Z,95.85
2023-01-06T11:09:09.451Z,95.83
2023-01-06T11:11:33.438Z,94.10
2023-01-06T11:14:00.032Z,94.33
2023-01-06T11:16:27.729Z,94.66
2023-01-06T11:18:57.052Z,95.50
2023-01-06T11:21:22.494Z,94.54
2023-01-06T11:23:48.826Z,93.37
2023-01-06T11:26:19.290Z,93.18
2023-01-06T11:28:44.937Z,93.62
2023-01-06T11:31:11.245Z,93.58
2023-01-06T11:33:38.609Z,94.10
2023-01-06T11:36:11.276Z,94.82
2023-01-06T11:38:44.629Z,94.55
2023-01-06T11:41:11.211Z,95.94
2023-01-06T11:43:34.761Z,94.53
2023-01-06T11:46:00.790Z,94.11
2023-01-06T11:48:29.829Z,94.19
2023-01-06T11:50:56.360Z,95.93
2023-01-06T11:53:21.423Z,96.99
2023-01-06T11:55:58.409Z,97.86
2023-01-06T11:58:35.342Z,97.83
2023-01-06T12:01:06.501Z,97.69
2023-01-06T12:03:35.672Z,97.32
2023-01-06T12:06:07.603Z,97.30
2023-01-06T12:08:38.919Z,97.40
2023-01-06T12:11:14.033Z,97.93
2023-01-06T12:13:45.022Z,98.14
2023-01-06T12:16:23.735Z,99.18
2023-01-06T12:18:48.240Z,99.94
2023-01-06T12:21:18.961Z,99.50
2023-01-06T12:23:45.537Z,98.98
2023-01-06T12:26:19.969Z,100.00
2023-01-06T12:28:47.405Z,98.91
2023-01-06T12:31:17.796Z,98.57
2023-01-06T12:33:48.606Z,97.92
2023-01-06T12:36:21.059Z,99.28
2023-01-06T12:38:54.353Z,99.21
2023-01-06T12:41:28.020Z,98.03
2023-01-06T12:44:00.400Z,98.52
2023-01-06T12:46:32.416Z,98.46
2023-01-06T12:49:00.962Z,98.87
2023-01-06T12:51:31.844Z,98.74
2023-01-06T12:54:01.923Z,97.55
2023-01-06T12:56:56.285Z,97.38
2023-01-06T12:59:31.546Z,97.65
2023-01-06T13:02:02.959Z,97.89
2023-01-06T13:04:58.302Z,97.53
2023-01-06T13:07:37.901Z,98.27
2023-01-06T13:10:17.226Z,97.45
2023-01-06T13:13:00.859Z,97.52
2023-01-06T13:15:29.089Z,97.32
2023-01-06T13:18:02.946Z,95.64
2023-01-06T13:20:35.200Z,94.98
2023-01-06T13:23:31.098Z,95.80
2023-01-06T13:26:18.827Z,94.77
2023-01-06T13:28:55.237Z,94.80
2023-01-06T13:31:40.973Z,94.94
2023-01-06T13:34:44.270Z,93.97
2023-01-06T13:37:38.712Z,94.42
2023-01-06T13:40:09.429Z,94.62
2023-01-06T13:42:40.612Z,92.97
2023-01-06T13:45:11.264Z,92.94
2023-01-06T13:47:36.078Z,92.97
2023-01-06T13:50:00.393Z,93.61
2023-01-06T13:52:27.470Z,93.61
2023-01-06T13:55:23.089Z,94.91
2023-01-06T13:57:47.742Z,93.68
2023-01-06T14:00:30.595Z,92.96
2023-01-06T14:03:21.424Z,93.65
2023-01-06T14:05:57.493Z,92.68
2023-01-06T14:08:22.775Z,92.51
2023-01-06T14:10:48.614Z,93.79
2023-01-06T14:13:23.158Z,94.03
2023-01-06T14:15:58.568Z,92.81
2023-01-06T14:18:33.277Z,93.94
2023-01-06T14:21:02.518Z,95.76
2023-01-06T14:23:27.931Z,94.74
2023-01-06T14:25:55.053Z,94.46
2023-01-06T14:28:30.660Z,95.14
2023-01-06T14:31:51.369Z,96.10
2023-01-06T14:34:18.447Z,94.68
2023-01-06T14:36:42.392Z,95.24
2023-01-06T14:39:10.360Z,96.33
2023-01-06T14:41:41.327Z,96.81
2023-01-06T14:44:12.510Z,96.23
2023-01-06T14:46:44.446Z,96.70
2023-01-06T14:49:17.915Z,96.15
2023-01-06T14:51:45.375Z,94.45
2023-01-06T14:54:20.624Z,95.38
2023-01-06T14:56:54.650Z,95.09
2023-01-06T14:59:19.443Z,94.55
2023-01-06T15:01:45.937Z,96.53
2023-01-06T15:04:26.204Z,94.96
2023-01-06T15:07:03.344Z,95.85
2023-01-06T15:09:27.570Z,94.40
2023-01-06T15:11:51.112Z,94.27
2023-01-06T15:14:33.508Z,94.92
2023-01-06T15:17:02.607Z,94.27
2023-01-06T15:19:26.874Z,93.74
2023-01-06T15:21:51.932Z,93.31
2023-01-06T15:24:22.130Z,94.38
2023-01-06T15:26:45.887Z,95.43
2023-01-06T15:29:17.648Z,93.72
2023-01-06T15:31:42.397Z,94.67
2023-01-06T15:34:12.577Z,93.81
2023-01-06T15:36:39.037Z,93.60
2023-01-06T15:39:05.230Z,94.66
2023-01-06T15:41:36.653Z,94.13
2023-01-06T15:44:01.216Z,93.74
2023-01-06T15:46:25.579Z,93.06
2023-01-06T15:48:49.478Z,93.64
2023-01-06T15:51:16.791Z,94.08
2023-01-06T15:53:40.749Z,94.07
2023-01-06T15:56:06.072Z,94.80
2023-01-06T15:58:32.994Z,94.40
2023-01-06T16:01:03.084Z,93.03
2023-01-06T16:03:29.388Z,92.14
2023-01-06T16:06:00.333Z,93.78
2023-01-06T16:08:35.571Z,92.65
2023-01-06T16:11:41.017Z,93.04
2023-01-06T16:14:07.144Z,93.20
2023-01-06T16:16:36.164Z,92.51
2023-01-06T16:19:09.326Z,91.98
2023-01-06T16:21:35.359Z,92.34
2023-01-06T16:24:03.171Z,92.68
2023-01-06T16:26:30.083Z,92.40
2023-01-06T16:28:56.720Z,92.93
2023-01-06T16:31:32.429Z,92.31
2023-01-06T16:33:56.925Z,91.92
2023-01-06T16:36:20.499Z,91.19
2023-01-06T16:38:44.597Z,92.83
2023-01-06T16:41:15.317Z,92.58
2023-01-06T16:43:38.936Z,92.50
2023-01-06T16:46:20.255Z,92.57
2023-01-06T16:48:43.900Z,91.48
2023-01-06T16:51:18.100Z,91.82
2023-01-06T16:53:43.604Z,91.72
2023-01-06T16:56:19.926Z,90.46
2023-01-06T16:58:43.559Z,90.43
2023-01-06T17:01:15.869Z,90.40
2023-01-06T17:03:39.907Z,90.90
2023-01-06T17:06:03.495Z,91.24
2023-01-06T17:08:30.668Z,90.87
2023-01-06T17:10:54.225Z,89.16
2023-01-06T17:13:39.736Z,90.31
2023-01-06T17:16:16.501Z,91.58
2023-01-06T17:18:51.069Z,91.19
2023-01-06T17:21:17.825Z,90.86
2023-01-06T17:23:49.208Z,92.39
2023-01-06T17:26:17.835Z,93.22
2023-01-06T17:28:43.618Z,92.34
2023-01-06T17:31:12.645Z,91.93
2023-01-06T17:33:36.231Z,93.10
2023-01-06T17:35:59.900Z,93.00
2023-01-06T17:38:25.988Z,93.09
2023-01-06T17:40:50.459Z,91.28
2023-01-06T17:43:30.730Z,90.17
2023-01-06T17:45:56.087Z,89.94
2023-01-06T17:48:19.748Z,89.98
2023-01-06T17:50:48.492Z,89.71
2023-01-06T17:53:34.686Z,90.52
2023-01-06T17:56:01.055Z,92.24
2023-01-06T17:58:30.382Z,92.83
2023-01-06T18:00:55.593Z,93.07
2023-01-06T18:03:22.993Z,94.37
2023-01-06T18:06:10.543Z,92.58
2023-01-06T18:08:37.482Z,92.45
2023-01-06T18:11:26.653Z,92.92
2023-01-06T18:13:51.770Z,92.26
2023-01-06T18:16:29.576Z,92.69
2023-01-06T18:18:53.496Z,92.38
2023-01-06T18:21:34.611Z,91.92
2023-01-06T18:23:58.234Z,91.37
2023-01-06T18:26:47.665Z,90.67
2023-01-06T18:29:19.491Z,90.53
2023-01-06T18:31:45.549Z,91.44
2023-01-06T18:34:26.144Z,92.25
2023-01-06T18:36:49.929Z,91.00
2023-01-06T18:39:14.878Z,89.28
2023-01-06T18:41:38.484Z,88.75
2023-01-06T18:44:02.002Z,91.49
2023-01-06T18:46:26.805Z,91.29
2023-01-06T18:48:51.742Z,89.53
2023-01-06T18:51:20.547Z,89.02
2023-01-06T18:53:45.087Z,89.70
2023-01-06T18:56:15.998Z,89.76
2023-01-06T18:58:46.998Z,90.15
2023-01-06T19:01:19.749Z,90.29
2023-01-06T19:04:01.258Z,91.94
2023-01-06T19:06:53.235Z,92.03
2023-01-06T19:09:28.660Z,91.65
2023-01-06T19:12:02.721Z,93.26
2023-01-06T19:14:26.880Z,92.35
2023-01-06T19:16:54.143Z,94.09
2023-01-06T19:19:27.537Z,94.03
2023-01-06T19:21:51.842Z,93.74
2023-01-06T19:24:38.783Z,93.07
2023-01-06T19:27:02.486Z,92.59
2023-01-06T19:29:29.977Z,94.46
2023-01-06T19:31:57.374Z,93.19
2023-01-06T19:34:23.906Z,93.80
2023-01-06T19:36:50.894Z,92.71
2023-01-06T19:39:26.605Z,92.72
2023-01-06T19:41:51.788Z,93.62
2023-01-06T19:44:16.956Z,93.95
2023-01-06T19:46:43.718Z,93.98
2023-01-06T19:49:16.860Z,94.43
2023-01-06T19:51:41.862Z,94.33
2023-01-06T19:54:16.246Z,95.11
2023-01-06T19:56:42.903Z,94.58
2023-01-06T19:59:16.793Z,95.04
2023-01-06T20:01:40.509Z,94.35
2023-01-06T20:04:04.444Z,93.93
2023-01-06T20:06:28.213Z,92.73
2023-01-06T20:08:53.863Z,94.26
2023-01-06T20:11:17.608Z,94.18
2023-01-06T20:13:41.240Z,93.23
2023-01-06T20:16:05.773Z,95.54
2023-01-06T20:18:29.321Z,94.89
2023-01-06T20:20:52.922Z,96.24
2023-01-06T20:23:16.419Z,95.46
2023-01-06T20:25:41.466Z,94.08
2023-01-06T20:28:05.316Z,94.53
2023-01-06T20:30:28.949Z,94.87
2023-01-06T20:32:52.484Z,95.03
2023-01-06T20:35:16.877Z,94.44
2023-01-06T20:37:40.561Z,96.02
2023-01-06T20:40:04.427Z,94.19
2023-01-06T20:42:29.378Z,94.98
2023-01-06T20:44:52.956Z,93.96
2023-01-06T20:47:16.959Z,93.47
2023-01-06T20:49:40.578Z,93.98
2023-01-06T20:52:04.082Z,95.03
2023-01-06T20:54:27.700Z,94.34
2023-01-06T20:56:51.300Z,94.93
2023-01-06T20:59:16.392Z,95.13
2023-01-06T21:01:40.049Z,94.60
2023-01-06T21:04:03.703Z,94.92
2023-01-06T21:06:27.219Z,95.30
2023-01-06T21:08:50.786Z,95.11
2023-01-06T21:11:14.314Z,93.98
2023-01-06T21:13:37.992Z,93.48
2023-01-06T21:16:02.910Z,95.08
2023-01-06T21:18:26.532Z,94.86
2023-01-06T21:20:50.446Z,94.54
2023-01-06T21:23:14.018Z,95.31
2023-01-06T21:25:37.616Z,96.61
2023-01-06T21:28:01.174Z,95.63
2023-01-06T21:30:24.792Z,96.40
2023-01-06T21:32:49.844Z,95.98
2023-01-06T21:35:13.396Z,94.94
2023-01-06T21:37:37.032Z,95.19
2023-01-06T21:40:00.902Z,95.13
2023-01-06T21:42:41.997Z,96.28
2023-01-06T21:45:07.360Z,95.44
2023-01-06T21:47:31.001Z,95.65
2023-01-06T21:49:55.982Z,94.08
2023-01-06T21:52:19.567Z,94.71
2023-01-06T21:54:44.446Z,94.19
2023-01-06T21:57:07.987Z,93.60
2023-01-06T21:59:31.696Z,95.26
2023-01-06T22:01:55.340Z,95.03
2023-01-06T22:04:19.042Z,93.34
2023-01-06T22:06:45.315Z,92.96
2023-01-06T22:09:10.839Z,94.37
2023-01-06T22:11:35.703Z,93.66
2023-01-06T22:13:59.418Z,92.59
2023-01-06T22:16:23.315Z,94.49
2023-01-06T22:18:47.116Z,94.64
2023-01-06T22:21:10.727Z,93.99
2023-01-06T22:23:36.749Z,94.15
2023-01-06T22:26:00.257Z,93.63
2023-01-06T22:28:24.357Z,93.90
2023-01-06T22:30:47.942Z,92.91
2023-01-06T22:33:11.532Z,92.06
2023-01-06T22:35:35.167Z,92.46
2023-01-06T22:37:59.224Z,92.52
2023-01-06T22:40:24.345Z,92.45
2023-01-06T22:42:48.098Z,92.59
2023-01-06T22:45:12.980Z,93.96
2023-01-06T22:47:36.719Z,93.35
2023-01-06T22:50:00.571Z,93.53
2023-01-06T22:52:24.386Z,93.35
2023-01-06T22:54:47.963Z,93.24
2023-01-06T22:57:12.933Z,94.44
2023-01-06T22:59:36.687Z,94.20
2023-01-06T23:02:00.405Z,94.82
2023-01-06T23:04:24.085Z,93.20
2023-01-06T23:06:47.743Z,93.24
2023-01-06T23:09:11.295Z,92.92
2023-01-06T23:11:36.950Z,93.21
2023-01-06T23:14:01.846Z,92.53
2023-01-06T23:16:29.005Z,93.45
2023-01-06T23:18:52.692Z,92.31
2023-01-06T23:21:21.551Z,91.30
2023-01-06T23:23:46.779Z,90.85
2023-01-06T23:26:14.129Z,91.09
2023-01-06T23:28:38.110Z,90.03
2023-01-06T23:31:09.986Z,89.53
2023-01-06T23:33:34.110Z,90.39
2023-01-06T23:36:01.223Z,91.95
2023-01-06T23:38:24.817Z,91.30
2023-01-06T23:40:48.345Z,91.07
2023-01-06T23:43:11.894Z,92.88
2023-01-06T23:45:35.466Z,90.56
2023-01-06T23:48:00.447Z,90.92
2023-01-06T23:50:24.115Z,90.77
2023-01-06T23:52:47.682Z,90.59
2023-01-06T23:55:11.505Z,90.64
2023-01-06T23:57:35.107Z,92.02
2023-01-06T23:59:58.640Z,93.57
